sensor_id;sensor_type;location;lat;lon;timestamp;temperature;humidity
58582;DHT22;44361;51.476;5.700;2022-12-20T00:01:12;11.00;99.90
58582;DHT22;44361;51.476;5.700;2022-12-20T00:03:38;11.00;99.90
58582;DHT22;44361;51.476;5.700;2022-12-20T00:06:08;11.00;99.90
58582;DHT22;44361;51.476;5.700;2022-12-20T00:08:36;11.00;99.90
58582;DHT22;44361;51.476;5.700;2022-12-20T00:11:04;11.00;99.90
58582;DHT22;44361;51.476;5.700;2022-12-20T00:13:31;11.00;99.90
58582;DHT22;44361;51.476;5.700;2022-12-20T00:16:12;11.00;99.90
58582;DHT22;44361;51.476;5.700;2022-12-20T00:18:40;10.90;99.90
58582;DHT22;44361;51.476;5.700;2022-12-20T00:21:10;11.00;99.90
58582;DHT22;44361;51.476;5.700;2022-12-20T00:23:37;10.90;99.90
58582;DHT22;44361;51.476;5.700;2022-12-20T00:26:13;11.00;99.90
58582;DHT22;44361;51.476;5.700;2022-12-20T00:28:41;11.00;99.90
58582;DHT22;44361;51.476;5.700;2022-12-20T00:31:08;11.00;99.90
58582;DHT22;44361;51.476;5.700;2022-12-20T00:33:36;11.10;99.90
58582;DHT22;44361;51.476;5.700;2022-12-20T00:36:04;11.20;99.90
58582;DHT22;44361;51.476;5.700;2022-12-20T00:38:30;11.20;99.90
58582;DHT22;44361;51.476;5.700;2022-12-20T00:41:09;11.20;99.90
58582;DHT22;44361;51.476;5.700;2022-12-20T00:43:45;11.10;99.90
58582;DHT22;44361;51.476;5.700;2022-12-20T00:46:15;11.20;99.90
58582;DHT22;44361;51.476;5.700;2022-12-20T00:48:41;11.30;99.90
58582;DHT22;44361;51.476;5.700;2022-12-20T00:51:14;11.30;99.90
58582;DHT22;44361;51.476;5.700;2022-12-20T00:53:43;11.40;99.90
58582;DHT22;44361;51.476;5.700;2022-12-20T00:56:11;11.40;99.90
58582;DHT22;44361;51.476;5.700;2022-12-20T00:58:39;11.40;99.90
58582;DHT22;44361;51.476;5.700;2022-12-20T01:01:22;11.40;99.90
58582;DHT22;44361;51.476;5.700;2022-12-20T01:03:49;11.40;99.90
58582;DHT22;44361;51.476;5.700;2022-12-20T01:06:15;11.40;99.90
58582;DHT22;44361;51.476;5.700;2022-12-20T01:08:43;11.40;99.90
58582;DHT22;44361;51.476;5.700;2022-12-20T01:11:15;11.40;99.90
58582;DHT22;44361;51.476;5.700;2022-12-20T01:13:48;11.40;99.90
58582;DHT22;44361;51.476;5.700;2022-12-20T01:16:18;11.40;99.90
58582;DHT22;44361;51.476;5.700;2022-12-20T01:18:51;11.50;99.90
58582;DHT22;44361;51.476;5.700;2022-12-20T01:21:19;11.50;99.90
58582;DHT22;44361;51.476;5.700;2022-12-20T01:23:46;11.40;99.90
58582;DHT22;44361;51.476;5.700;2022-12-20T01:26:16;11.40;99.90
58582;DHT22;44361;51.476;5.700;2022-12-20T01:28:43;11.40;99.90
58582;DHT22;44361;51.476;5.700;2022-12-20T01:31:12;11.30;99.90
58582;DHT22;44361;51.476;5.700;2022-12-20T01:33:38;11.20;99.90
58582;DHT22;44361;51.476;5.700;2022-12-20T01:36:07;11.10;99.90
58582;DHT22;44361;51.476;5.700;2022-12-20T01:38:34;10.90;99.90
58582;DHT22;44361;51.476;5.700;2022-12-20T01:41:00;10.80;99.90
58582;DHT22;44361;51.476;5.700;2022-12-20T01:46:20;10.50;99.90
58582;DHT22;44361;51.476;5.700;2022-12-20T01:48:51;10.50;99.90
58582;DHT22;44361;51.476;5.700;2022-12-20T01:51:18;10.50;99.90
58582;DHT22;44361;51.476;5.700;2022-12-20T01:53:45;10.40;99.90
58582;DHT22;44361;51.476;5.700;2022-12-20T01:56:12;10.40;99.90
58582;DHT22;44361;51.476;5.700;2022-12-20T01:58:38;10.30;99.90
58582;DHT22;44361;51.476;5.700;2022-12-20T02:01:05;10.20;99.90
58582;DHT22;44361;51.476;5.700;2022-12-20T02:03:31;10.20;99.90
58582;DHT22;44361;51.476;5.700;2022-12-20T02:05:57;10.20;99.90
58582;DHT22;44361;51.476;5.700;2022-12-20T02:08:34;10.10;99.90
58582;DHT22;44361;51.476;5.700;2022-12-20T02:11:22;10.10;99.90
58582;DHT22;44361;51.476;5.700;2022-12-20T02:17:19;10.10;99.90
58582;DHT22;44361;51.476;5.700;2022-12-20T02:20:21;10.10;99.90
58582;DHT22;44361;51.476;5.700;2022-12-20T02:23:33;10.10;99.90
58582;DHT22;44361;51.476;5.700;2022-12-20T02:34:36;10.10;99.90
58582;DHT22;44361;51.476;5.700;2022-12-20T02:37:03;10.10;99.90
58582;DHT22;44361;51.476;5.700;2022-12-20T02:39:30;10.20;99.90
58582;DHT22;44361;51.476;5.700;2022-12-20T02:42:18;10.20;99.90
58582;DHT22;44361;51.476;5.700;2022-12-20T02:44:53;10.20;99.90
58582;DHT22;44361;51.476;5.700;2022-12-20T02:48:02;10.30;99.90
58582;DHT22;44361;51.476;5.700;2022-12-20T02:50:53;10.30;99.90
58582;DHT22;44361;51.476;5.700;2022-12-20T02:53:21;10.40;99.90
58582;DHT22;44361;51.476;5.700;2022-12-20T02:58:23;10.50;99.90
58582;DHT22;44361;51.476;5.700;2022-12-20T03:00:52;10.60;99.90
58582;DHT22;44361;51.476;5.700;2022-12-20T03:03:19;10.70;99.90
58582;DHT22;44361;51.476;5.700;2022-12-20T03:05:51;10.70;99.90
58582;DHT22;44361;51.476;5.700;2022-12-20T03:08:17;10.70;99.90
58582;DHT22;44361;51.476;5.700;2022-12-20T03:10:45;10.70;99.90
58582;DHT22;44361;51.476;5.700;2022-12-20T03:13:10;10.70;99.90
58582;DHT22;44361;51.476;5.700;2022-12-20T03:15:37;10.80;99.90
58582;DHT22;44361;51.476;5.700;2022-12-20T03:18:03;10.80;99.90
58582;DHT22;44361;51.476;5.700;2022-12-20T03:20:29;10.80;99.90
58582;DHT22;44361;51.476;5.700;2022-12-20T03:22:56;10.80;99.90
58582;DHT22;44361;51.476;5.700;2022-12-20T03:25:21;10.90;99.90
58582;DHT22;44361;51.476;5.700;2022-12-20T03:27:47;10.90;99.90
58582;DHT22;44361;51.476;5.700;2022-12-20T03:30:13;10.90;99.90
58582;DHT22;44361;51.476;5.700;2022-12-20T03:32:39;11.00;99.90
58582;DHT22;44361;51.476;5.700;2022-12-20T03:35:04;11.00;99.90
58582;DHT22;44361;51.476;5.700;2022-12-20T03:37:30;11.10;99.90
58582;DHT22;44361;51.476;5.700;2022-12-20T03:39:56;11.10;99.90
58582;DHT22;44361;51.476;5.700;2022-12-20T03:42:21;11.10;99.90
58582;DHT22;44361;51.476;5.700;2022-12-20T03:44:48;11.10;99.90
58582;DHT22;44361;51.476;5.700;2022-12-20T03:47:13;11.10;99.90
58582;DHT22;44361;51.476;5.700;2022-12-20T03:49:39;11.20;99.90
58582;DHT22;44361;51.476;5.700;2022-12-20T03:52:05;11.20;99.90
58582;DHT22;44361;51.476;5.700;2022-12-20T03:54:31;11.20;99.90
58582;DHT22;44361;51.476;5.700;2022-12-20T03:56:56;11.30;99.90
58582;DHT22;44361;51.476;5.700;2022-12-20T03:59:28;11.30;99.90
58582;DHT22;44361;51.476;5.700;2022-12-20T04:01:53;11.30;99.90
58582;DHT22;44361;51.476;5.700;2022-12-20T04:04:19;11.30;99.90
58582;DHT22;44361;51.476;5.700;2022-12-20T04:06:45;11.30;99.90
58582;DHT22;44361;51.476;5.700;2022-12-20T04:09:10;11.40;99.90
58582;DHT22;44361;51.476;5.700;2022-12-20T04:11:36;11.30;99.90
58582;DHT22;44361;51.476;5.700;2022-12-20T04:14:03;11.30;99.90
58582;DHT22;44361;51.476;5.700;2022-12-20T04:16:29;11.30;99.90
58582;DHT22;44361;51.476;5.700;2022-12-20T04:18:54;11.30;99.90
58582;DHT22;44361;51.476;5.700;2022-12-20T04:21:45;11.30;99.90
58582;DHT22;44361;51.476;5.700;2022-12-20T04:24:11;11.30;99.90
58582;DHT22;44361;51.476;5.700;2022-12-20T04:26:38;11.30;99.90
58582;DHT22;44361;51.476;5.700;2022-12-20T04:29:03;11.30;99.90
58582;DHT22;44361;51.476;5.700;2022-12-20T04:31:29;11.30;99.90
58582;DHT22;44361;51.476;5.700;2022-12-20T04:33:54;11.30;99.90
58582;DHT22;44361;51.476;5.700;2022-12-20T04:36:22;11.40;99.90
58582;DHT22;44361;51.476;5.700;2022-12-20T04:38:47;11.30;99.90
58582;DHT22;44361;51.476;5.700;2022-12-20T04:41:13;11.40;99.90
58582;DHT22;44361;51.476;5.700;2022-12-20T04:43:51;11.40;99.90
58582;DHT22;44361;51.476;5.700;2022-12-20T04:46:18;11.40;99.90
58582;DHT22;44361;51.476;5.700;2022-12-20T04:48:44;11.40;99.90
58582;DHT22;44361;51.476;5.700;2022-12-20T04:51:10;11.40;99.90
58582;DHT22;44361;51.476;5.700;2022-12-20T04:53:37;11.50;99.90
58582;DHT22;44361;51.476;5.700;2022-12-20T04:56:21;11.40;99.90
58582;DHT22;44361;51.476;5.700;2022-12-20T04:58:55;11.40;99.90
58582;DHT22;44361;51.476;5.700;2022-12-20T05:01:21;11.40;99.90
58582;DHT22;44361;51.476;5.700;2022-12-20T05:03:47;11.40;99.90
58582;DHT22;44361;51.476;5.700;2022-12-20T05:06:16;11.40;99.90
58582;DHT22;44361;51.476;5.700;2022-12-20T05:08:42;11.40;99.90
58582;DHT22;44361;51.476;5.700;2022-12-20T05:11:08;11.30;99.90
58582;DHT22;44361;51.476;5.700;2022-12-20T05:13:34;11.30;99.90
58582;DHT22;44361;51.476;5.700;2022-12-20T05:16:04;11.20;99.90
58582;DHT22;44361;51.476;5.700;2022-12-20T05:18:30;11.20;99.90
58582;DHT22;44361;51.476;5.700;2022-12-20T05:20:58;11.20;99.90
58582;DHT22;44361;51.476;5.700;2022-12-20T05:23:43;11.10;99.90
58582;DHT22;44361;51.476;5.700;2022-12-20T05:26:33;11.10;99.90
58582;DHT22;44361;51.476;5.700;2022-12-20T05:28:59;11.00;99.90
58582;DHT22;44361;51.476;5.700;2022-12-20T05:31:24;11.00;99.90
58582;DHT22;44361;51.476;5.700;2022-12-20T05:33:52;11.00;99.90
58582;DHT22;44361;51.476;5.700;2022-12-20T05:36:19;10.90;99.90
58582;DHT22;44361;51.476;5.700;2022-12-20T05:38:45;10.90;99.90
58582;DHT22;44361;51.476;5.700;2022-12-20T05:41:12;10.90;99.90
58582;DHT22;44361;51.476;5.700;2022-12-20T05:43:38;10.90;99.90
58582;DHT22;44361;51.476;5.700;2022-12-20T05:46:05;11.00;99.90
58582;DHT22;44361;51.476;5.700;2022-12-20T05:48:35;11.00;99.90
58582;DHT22;44361;51.476;5.700;2022-12-20T05:51:05;10.90;99.90
58582;DHT22;44361;51.476;5.700;2022-12-20T05:53:31;10.90;99.90
58582;DHT22;44361;51.476;5.700;2022-12-20T05:55:57;10.90;99.90
58582;DHT22;44361;51.476;5.700;2022-12-20T05:58:23;10.90;99.90
58582;DHT22;44361;51.476;5.700;2022-12-20T06:00:48;10.90;99.90
58582;DHT22;44361;51.476;5.700;2022-12-20T06:03:14;10.90;99.90
58582;DHT22;44361;51.476;5.700;2022-12-20T06:05:40;10.90;99.90
58582;DHT22;44361;51.476;5.700;2022-12-20T06:08:07;10.90;99.90
58582;DHT22;44361;51.476;5.700;2022-12-20T06:10:34;10.90;99.90
58582;DHT22;44361;51.476;5.700;2022-12-20T06:13:01;10.90;99.90
58582;DHT22;44361;51.476;5.700;2022-12-20T06:15:27;10.90;99.90
58582;DHT22;44361;51.476;5.700;2022-12-20T06:17:54;10.90;99.90
58582;DHT22;44361;51.476;5.700;2022-12-20T06:20:26;10.90;99.90
58582;DHT22;44361;51.476;5.700;2022-12-20T06:22:55;10.90;99.90
58582;DHT22;44361;51.476;5.700;2022-12-20T06:25:28;10.80;99.90
58582;DHT22;44361;51.476;5.700;2022-12-20T06:27:55;10.90;99.90
58582;DHT22;44361;51.476;5.700;2022-12-20T06:30:21;10.70;99.90
58582;DHT22;44361;51.476;5.700;2022-12-20T06:32:48;10.70;99.90
58582;DHT22;44361;51.476;5.700;2022-12-20T06:35:15;10.70;99.90
58582;DHT22;44361;51.476;5.700;2022-12-20T06:37:50;10.60;99.90
58582;DHT22;44361;51.476;5.700;2022-12-20T06:40:18;10.50;99.90
58582;DHT22;44361;51.476;5.700;2022-12-20T06:42:45;10.50;99.90
58582;DHT22;44361;51.476;5.700;2022-12-20T06:45:11;10.50;99.90
58582;DHT22;44361;51.476;5.700;2022-12-20T06:47:36;10.50;99.90
58582;DHT22;44361;51.476;5.700;2022-12-20T06:50:04;10.50;99.90
58582;DHT22;44361;51.476;5.700;2022-12-20T06:52:30;10.50;99.90
58582;DHT22;44361;51.476;5.700;2022-12-20T06:54:57;10.50;99.90
58582;DHT22;44361;51.476;5.700;2022-12-20T06:57:24;10.50;99.90
58582;DHT22;44361;51.476;5.700;2022-12-20T06:59:53;10.50;99.90
58582;DHT22;44361;51.476;5.700;2022-12-20T07:02:18;10.50;99.90
58582;DHT22;44361;51.476;5.700;2022-12-20T07:04:44;10.40;99.90
58582;DHT22;44361;51.476;5.700;2022-12-20T07:07:11;10.50;99.90
58582;DHT22;44361;51.476;5.700;2022-12-20T07:09:37;10.60;99.90
58582;DHT22;44361;51.476;5.700;2022-12-20T07:12:06;10.50;99.90
58582;DHT22;44361;51.476;5.700;2022-12-20T07:14:32;10.50;99.90
58582;DHT22;44361;51.476;5.700;2022-12-20T07:17:03;10.50;99.90
58582;DHT22;44361;51.476;5.700;2022-12-20T07:19:33;10.50;99.90
58582;DHT22;44361;51.476;5.700;2022-12-20T07:22:01;10.40;99.90
58582;DHT22;44361;51.476;5.700;2022-12-20T07:24:28;10.40;99.90
58582;DHT22;44361;51.476;5.700;2022-12-20T07:26:55;10.40;99.90
58582;DHT22;44361;51.476;5.700;2022-12-20T07:29:21;10.40;99.90
58582;DHT22;44361;51.476;5.700;2022-12-20T07:31:46;10.50;99.90
58582;DHT22;44361;51.476;5.700;2022-12-20T07:34:12;10.50;99.90
58582;DHT22;44361;51.476;5.700;2022-12-20T07:36:37;10.50;99.90
58582;DHT22;44361;51.476;5.700;2022-12-20T07:39:03;10.60;99.90
58582;DHT22;44361;51.476;5.700;2022-12-20T07:41:29;10.60;99.90
58582;DHT22;44361;51.476;5.700;2022-12-20T07:43:56;10.70;99.90
58582;DHT22;44361;51.476;5.700;2022-12-20T07:46:23;10.70;99.90
58582;DHT22;44361;51.476;5.700;2022-12-20T07:48:49;10.80;99.90
58582;DHT22;44361;51.476;5.700;2022-12-20T07:51:25;10.80;99.90
58582;DHT22;44361;51.476;5.700;2022-12-20T07:54:00;10.80;99.90
58582;DHT22;44361;51.476;5.700;2022-12-20T07:56:29;10.80;99.90
58582;DHT22;44361;51.476;5.700;2022-12-20T07:58:58;10.90;99.90
58582;DHT22;44361;51.476;5.700;2022-12-20T08:01:26;11.00;99.90
58582;DHT22;44361;51.476;5.700;2022-12-20T08:04:00;11.10;99.90
58582;DHT22;44361;51.476;5.700;2022-12-20T08:06:27;11.20;99.90
58582;DHT22;44361;51.476;5.700;2022-12-20T08:08:56;11.20;99.90
58582;DHT22;44361;51.476;5.700;2022-12-20T08:11:24;11.20;99.90
58582;DHT22;44361;51.476;5.700;2022-12-20T08:13:51;11.30;99.90
58582;DHT22;44361;51.476;5.700;2022-12-20T08:16:16;11.40;99.90
58582;DHT22;44361;51.476;5.700;2022-12-20T08:18:42;11.40;99.90
58582;DHT22;44361;51.476;5.700;2022-12-20T08:21:10;11.50;99.90
58582;DHT22;44361;51.476;5.700;2022-12-20T08:23:37;11.50;99.90
58582;DHT22;44361;51.476;5.700;2022-12-20T08:26:05;11.40;99.90
58582;DHT22;44361;51.476;5.700;2022-12-20T08:28:31;11.40;99.90
58582;DHT22;44361;51.476;5.700;2022-12-20T08:31:07;11.40;99.90
58582;DHT22;44361;51.476;5.700;2022-12-20T08:33:36;11.30;99.90
58582;DHT22;44361;51.476;5.700;2022-12-20T08:36:06;11.30;99.90
58582;DHT22;44361;51.476;5.700;2022-12-20T08:38:35;11.30;99.90
58582;DHT22;44361;51.476;5.700;2022-12-20T08:41:10;11.20;99.90
58582;DHT22;44361;51.476;5.700;2022-12-20T08:43:38;11.30;99.90
58582;DHT22;44361;51.476;5.700;2022-12-20T08:46:04;11.30;99.90
58582;DHT22;44361;51.476;5.700;2022-12-20T08:48:31;11.30;99.90
58582;DHT22;44361;51.476;5.700;2022-12-20T08:50:59;11.30;99.90
58582;DHT22;44361;51.476;5.700;2022-12-20T08:53:26;11.30;99.90
58582;DHT22;44361;51.476;5.700;2022-12-20T08:55:52;11.20;99.90
58582;DHT22;44361;51.476;5.700;2022-12-20T08:58:18;11.10;99.90
58582;DHT22;44361;51.476;5.700;2022-12-20T09:00:45;11.10;99.90
58582;DHT22;44361;51.476;5.700;2022-12-20T09:03:12;11.10;99.90
58582;DHT22;44361;51.476;5.700;2022-12-20T09:06:09;11.10;99.90
58582;DHT22;44361;51.476;5.700;2022-12-20T09:08:37;11.00;99.90
58582;DHT22;44361;51.476;5.700;2022-12-20T09:11:11;11.00;99.90
58582;DHT22;44361;51.476;5.700;2022-12-20T09:13:37;11.10;99.90
58582;DHT22;44361;51.476;5.700;2022-12-20T09:16:06;11.10;99.90
58582;DHT22;44361;51.476;5.700;2022-12-20T09:18:33;11.10;99.90
58582;DHT22;44361;51.476;5.700;2022-12-20T09:21:02;11.10;99.90
58582;DHT22;44361;51.476;5.700;2022-12-20T09:23:29;11.10;99.90
58582;DHT22;44361;51.476;5.700;2022-12-20T09:26:01;11.10;99.90
58582;DHT22;44361;51.476;5.700;2022-12-20T09:28:31;11.10;99.90
58582;DHT22;44361;51.476;5.700;2022-12-20T09:31:06;11.20;99.90
58582;DHT22;44361;51.476;5.700;2022-12-20T09:33:33;11.20;99.90
58582;DHT22;44361;51.476;5.700;2022-12-20T09:36:00;11.20;99.90
58582;DHT22;44361;51.476;5.700;2022-12-20T09:38:27;11.30;99.90
58582;DHT22;44361;51.476;5.700;2022-12-20T09:41:00;11.40;99.90
58582;DHT22;44361;51.476;5.700;2022-12-20T09:43:26;11.50;99.90
58582;DHT22;44361;51.476;5.700;2022-12-20T09:45:58;11.60;99.90
58582;DHT22;44361;51.476;5.700;2022-12-20T09:48:31;11.60;99.90
58582;DHT22;44361;51.476;5.700;2022-12-20T09:54:20;11.60;99.90
58582;DHT22;44361;51.476;5.700;2022-12-20T09:57:02;11.60;99.90
58582;DHT22;44361;51.476;5.700;2022-12-20T09:59:33;11.60;99.90
58582;DHT22;44361;51.476;5.700;2022-12-20T10:01:59;11.60;99.90
58582;DHT22;44361;51.476;5.700;2022-12-20T10:04:27;11.60;99.90
58582;DHT22;44361;51.476;5.700;2022-12-20T10:12:59;11.60;99.90
58582;DHT22;44361;51.476;5.700;2022-12-20T10:15:59;11.70;99.90
58582;DHT22;44361;51.476;5.700;2022-12-20T10:21:48;11.70;99.90
58582;DHT22;44361;51.476;5.700;2022-12-20T10:24:30;11.70;99.90
58582;DHT22;44361;51.476;5.700;2022-12-20T10:27:18;11.80;99.90
58582;DHT22;44361;51.476;5.700;2022-12-20T10:29:45;12.00;99.90
58582;DHT22;44361;51.476;5.700;2022-12-20T10:32:15;12.10;99.90
58582;DHT22;44361;51.476;5.700;2022-12-20T10:34:56;12.20;99.90
58582;DHT22;44361;51.476;5.700;2022-12-20T10:37:25;12.30;99.90
58582;DHT22;44361;51.476;5.700;2022-12-20T10:39:52;12.30;99.90
58582;DHT22;44361;51.476;5.700;2022-12-20T10:42:37;12.30;99.90
58582;DHT22;44361;51.476;5.700;2022-12-20T10:47:41;12.00;99.90
58582;DHT22;44361;51.476;5.700;2022-12-20T10:50:22;11.80;99.90
58582;DHT22;44361;51.476;5.700;2022-12-20T10:55:39;11.60;99.90
58582;DHT22;44361;51.476;5.700;2022-12-20T10:58:33;11.50;99.90
58582;DHT22;44361;51.476;5.700;2022-12-20T11:01:14;11.50;99.90
58582;DHT22;44361;51.476;5.700;2022-12-20T11:03:56;11.40;99.90
58582;DHT22;44361;51.476;5.700;2022-12-20T11:06:41;11.30;99.90
58582;DHT22;44361;51.476;5.700;2022-12-20T11:09:32;11.20;99.90
58582;DHT22;44361;51.476;5.700;2022-12-20T11:14:24;11.00;99.90
58582;DHT22;44361;51.476;5.700;2022-12-20T11:16:51;11.00;99.90
58582;DHT22;44361;51.476;5.700;2022-12-20T11:22:49;11.00;99.90
58582;DHT22;44361;51.476;5.700;2022-12-20T11:25:38;11.10;99.90
58582;DHT22;44361;51.476;5.700;2022-12-20T11:30:42;11.30;99.90
58582;DHT22;44361;51.476;5.700;2022-12-20T11:33:51;11.30;99.90
58582;DHT22;44361;51.476;5.700;2022-12-20T11:42:17;11.20;99.90
58582;DHT22;44361;51.476;5.700;2022-12-20T11:45:14;11.20;99.90
58582;DHT22;44361;51.476;5.700;2022-12-20T11:50:57;11.10;99.90
58582;DHT22;44361;51.476;5.700;2022-12-20T11:56:35;11.00;99.90
58582;DHT22;44361;51.476;5.700;2022-12-20T12:04:23;11.00;99.90
58582;DHT22;44361;51.476;5.700;2022-12-20T12:12:02;11.00;99.90
58582;DHT22;44361;51.476;5.700;2022-12-20T12:23:30;11.00;99.90
58582;DHT22;44361;51.476;5.700;2022-12-20T12:26:03;11.10;99.90
58582;DHT22;44361;51.476;5.700;2022-12-20T12:28:29;11.10;99.90
58582;DHT22;44361;51.476;5.700;2022-12-20T12:31:14;11.10;99.90
58582;DHT22;44361;51.476;5.700;2022-12-20T12:34:04;11.10;99.90
58582;DHT22;44361;51.476;5.700;2022-12-20T12:36:46;11.10;99.90
58582;DHT22;44361;51.476;5.700;2022-12-20T12:44:58;11.10;99.90
58582;DHT22;44361;51.476;5.700;2022-12-20T12:47:44;11.00;99.90
58582;DHT22;44361;51.476;5.700;2022-12-20T12:50:25;11.00;99.90
58582;DHT22;44361;51.476;5.700;2022-12-20T12:53:03;11.00;99.90
58582;DHT22;44361;51.476;5.700;2022-12-20T12:55:52;11.00;99.90
58582;DHT22;44361;51.476;5.700;2022-12-20T12:58:37;11.00;99.90
58582;DHT22;44361;51.476;5.700;2022-12-20T13:01:47;11.00;99.90
58582;DHT22;44361;51.476;5.700;2022-12-20T13:04:21;10.90;99.90
58582;DHT22;44361;51.476;5.700;2022-12-20T13:06:53;10.90;99.90
58582;DHT22;44361;51.476;5.700;2022-12-20T13:11:50;10.90;99.90
58582;DHT22;44361;51.476;5.700;2022-12-20T13:16:46;10.80;99.90
58582;DHT22;44361;51.476;5.700;2022-12-20T13:19:15;10.80;99.90
58582;DHT22;44361;51.476;5.700;2022-12-20T13:21:45;10.80;99.90
58582;DHT22;44361;51.476;5.700;2022-12-20T13:38:03;10.70;99.90
58582;DHT22;44361;51.476;5.700;2022-12-20T13:40:44;10.70;99.90
58582;DHT22;44361;51.476;5.700;2022-12-20T13:43:28;10.70;99.90
58582;DHT22;44361;51.476;5.700;2022-12-20T13:45:56;10.70;99.90
58582;DHT22;44361;51.476;5.700;2022-12-20T13:48:30;10.60;99.90
58582;DHT22;44361;51.476;5.700;2022-12-20T13:50:57;10.60;99.90
58582;DHT22;44361;51.476;5.700;2022-12-20T13:53:25;10.60;99.90
58582;DHT22;44361;51.476;5.700;2022-12-20T13:55:51;10.60;99.90
58582;DHT22;44361;51.476;5.700;2022-12-20T13:58:24;10.60;99.90
58582;DHT22;44361;51.476;5.700;2022-12-20T14:00:52;10.60;99.90
58582;DHT22;44361;51.476;5.700;2022-12-20T14:03:21;10.50;99.90
58582;DHT22;44361;51.476;5.700;2022-12-20T14:05:48;10.50;99.90
58582;DHT22;44361;51.476;5.700;2022-12-20T14:08:20;10.50;99.90
58582;DHT22;44361;51.476;5.700;2022-12-20T14:10:46;10.50;99.90
58582;DHT22;44361;51.476;5.700;2022-12-20T14:13:24;10.50;99.90
58582;DHT22;44361;51.476;5.700;2022-12-20T14:15:52;10.50;99.90
58582;DHT22;44361;51.476;5.700;2022-12-20T14:18:23;10.40;99.90
58582;DHT22;44361;51.476;5.700;2022-12-20T14:20:59;10.40;99.90
58582;DHT22;44361;51.476;5.700;2022-12-20T14:23:36;10.40;99.90
58582;DHT22;44361;51.476;5.700;2022-12-20T14:26:02;10.50;99.90
58582;DHT22;44361;51.476;5.700;2022-12-20T14:28:36;10.40;99.90
58582;DHT22;44361;51.476;5.700;2022-12-20T14:31:04;10.40;99.90
58582;DHT22;44361;51.476;5.700;2022-12-20T14:33:39;10.40;99.90
58582;DHT22;44361;51.476;5.700;2022-12-20T14:36:10;10.40;99.90
58582;DHT22;44361;51.476;5.700;2022-12-20T14:38:50;10.40;99.90
58582;DHT22;44361;51.476;5.700;2022-12-20T14:41:29;10.40;99.90
58582;DHT22;44361;51.476;5.700;2022-12-20T14:44:10;10.40;99.90
58582;DHT22;44361;51.476;5.700;2022-12-20T14:46:37;10.40;99.90
58582;DHT22;44361;51.476;5.700;2022-12-20T14:51:40;10.30;99.90
58582;DHT22;44361;51.476;5.700;2022-12-20T14:54:09;10.30;99.90
58582;DHT22;44361;51.476;5.700;2022-12-20T14:56:36;10.30;99.90
58582;DHT22;44361;51.476;5.700;2022-12-20T14:59:05;10.30;99.90
58582;DHT22;44361;51.476;5.700;2022-12-20T15:01:37;10.30;99.90
58582;DHT22;44361;51.476;5.700;2022-12-20T15:04:21;10.30;99.90
58582;DHT22;44361;51.476;5.700;2022-12-20T15:06:46;10.20;99.90
58582;DHT22;44361;51.476;5.700;2022-12-20T15:09:13;10.30;99.90
58582;DHT22;44361;51.476;5.700;2022-12-20T15:11:40;10.20;99.90
58582;DHT22;44361;51.476;5.700;2022-12-20T15:14:34;10.20;99.90
58582;DHT22;44361;51.476;5.700;2022-12-20T15:17:20;10.20;99.90
58582;DHT22;44361;51.476;5.700;2022-12-20T15:19:46;10.20;99.90
58582;DHT22;44361;51.476;5.700;2022-12-20T15:22:18;10.20;99.90
58582;DHT22;44361;51.476;5.700;2022-12-20T15:24:45;10.20;99.90
58582;DHT22;44361;51.476;5.700;2022-12-20T15:27:14;10.20;99.90
58582;DHT22;44361;51.476;5.700;2022-12-20T15:29:40;10.20;99.90
58582;DHT22;44361;51.476;5.700;2022-12-20T15:32:22;10.20;99.90
58582;DHT22;44361;51.476;5.700;2022-12-20T15:34:49;10.20;99.90
58582;DHT22;44361;51.476;5.700;2022-12-20T15:37:15;10.20;99.90
58582;DHT22;44361;51.476;5.700;2022-12-20T15:39:41;10.20;99.90
58582;DHT22;44361;51.476;5.700;2022-12-20T15:42:13;10.20;99.90
58582;DHT22;44361;51.476;5.700;2022-12-20T15:44:41;10.20;99.90
58582;DHT22;44361;51.476;5.700;2022-12-20T15:47:12;10.20;99.90
58582;DHT22;44361;51.476;5.700;2022-12-20T15:49:39;10.20;99.90
58582;DHT22;44361;51.476;5.700;2022-12-20T15:52:04;10.20;99.90
58582;DHT22;44361;51.476;5.700;2022-12-20T15:54:34;10.20;99.90
58582;DHT22;44361;51.476;5.700;2022-12-20T15:57:05;10.10;99.90
58582;DHT22;44361;51.476;5.700;2022-12-20T15:59:34;10.20;99.90
58582;DHT22;44361;51.476;5.700;2022-12-20T16:02:00;10.20;99.90
58582;DHT22;44361;51.476;5.700;2022-12-20T16:04:25;10.20;99.90
58582;DHT22;44361;51.476;5.700;2022-12-20T16:06:53;10.20;99.90
58582;DHT22;44361;51.476;5.700;2022-12-20T16:09:19;10.20;99.90
58582;DHT22;44361;51.476;5.700;2022-12-20T16:11:45;10.20;99.90
58582;DHT22;44361;51.476;5.700;2022-12-20T16:14:16;10.10;99.90
58582;DHT22;44361;51.476;5.700;2022-12-20T16:16:42;10.20;99.90
58582;DHT22;44361;51.476;5.700;2022-12-20T16:19:09;10.10;99.90
58582;DHT22;44361;51.476;5.700;2022-12-20T16:21:42;10.10;99.90
58582;DHT22;44361;51.476;5.700;2022-12-20T16:24:12;10.10;99.90
58582;DHT22;44361;51.476;5.700;2022-12-20T16:26:39;10.10;99.90
58582;DHT22;44361;51.476;5.700;2022-12-20T16:29:04;10.10;99.90
58582;DHT22;44361;51.476;5.700;2022-12-20T16:31:33;10.10;99.90
58582;DHT22;44361;51.476;5.700;2022-12-20T16:34:01;10.10;99.90
58582;DHT22;44361;51.476;5.700;2022-12-20T16:36:28;10.10;99.90
58582;DHT22;44361;51.476;5.700;2022-12-20T16:38:54;10.10;99.90
58582;DHT22;44361;51.476;5.700;2022-12-20T16:41:24;10.10;99.90
58582;DHT22;44361;51.476;5.700;2022-12-20T16:43:53;10.10;99.90
58582;DHT22;44361;51.476;5.700;2022-12-20T16:46:20;10.10;99.90
58582;DHT22;44361;51.476;5.700;2022-12-20T16:48:46;10.00;99.90
58582;DHT22;44361;51.476;5.700;2022-12-20T16:51:30;10.00;99.90
58582;DHT22;44361;51.476;5.700;2022-12-20T16:54:01;10.10;99.90
58582;DHT22;44361;51.476;5.700;2022-12-20T16:56:27;10.10;99.90
58582;DHT22;44361;51.476;5.700;2022-12-20T16:58:53;10.10;99.90
58582;DHT22;44361;51.476;5.700;2022-12-20T17:01:37;10.10;99.90
58582;DHT22;44361;51.476;5.700;2022-12-20T17:04:03;10.10;99.90
58582;DHT22;44361;51.476;5.700;2022-12-20T17:06:30;10.10;99.90
58582;DHT22;44361;51.476;5.700;2022-12-20T17:08:56;10.10;99.90
58582;DHT22;44361;51.476;5.700;2022-12-20T17:11:28;10.10;99.90
58582;DHT22;44361;51.476;5.700;2022-12-20T17:13:56;10.10;99.90
58582;DHT22;44361;51.476;5.700;2022-12-20T17:16:22;10.00;99.90
58582;DHT22;44361;51.476;5.700;2022-12-20T17:18:50;10.00;99.90
58582;DHT22;44361;51.476;5.700;2022-12-20T17:23:45;10.10;99.90
58582;DHT22;44361;51.476;5.700;2022-12-20T17:26:26;10.10;99.90
58582;DHT22;44361;51.476;5.700;2022-12-20T17:28:56;10.10;99.90
58582;DHT22;44361;51.476;5.700;2022-12-20T17:31:35;10.10;99.90
58582;DHT22;44361;51.476;5.700;2022-12-20T17:34:04;10.10;99.90
58582;DHT22;44361;51.476;5.700;2022-12-20T17:36:30;10.00;99.90